Time;durP1;ratioP1;P1;durP2;ratioP2;P2;SDS_P1;SDS_P2;PMS_P1;PMS_P2;Temp;Humidity;BMP_temperature;BMP_pressure;BME280_temperature;BME280_humidity;BME280_pressure;Samples;Min_cycle;Max_cycle;Signal;HPM_P1;HPM_P2
2022/11/11 00:00:32;;;;;;;15.40;9.60;;;;;;;8.66;100.00;102725.03;5041224;28;20488;-85
2022/11/11 00:02:58;;;;;;;17.50;10.20;;;;;;;8.68;100.00;102721.19;5041703;28;20060;-86
2022/11/11 00:05:24;;;;;;;16.73;10.27;;;;;;;8.71;100.00;102728.13;5041131;28;20541;-85
2022/11/11 00:07:58;;;;;;;14.77;9.70;;;;;;;8.73;100.00;102720.72;5041212;28;20067;-82
2022/11/11 00:10:25;;;;;;;20.30;11.05;;;;;;;8.79;100.00;102722.81;5041111;28;20025;-85
2022/11/11 00:12:50;;;;;;;16.47;11.00;;;;;;;8.76;100.00;102723.97;5022181;28;20842;-82
2022/11/11 00:15:16;;;;;;;17.20;11.27;;;;;;;8.77;100.00;102722.09;5040798;28;20127;-85
2022/11/11 00:26:04;;;;;;;18.57;12.17;;;;;;;8.83;100.00;102720.66;5039954;28;20578;-83
2022/11/11 00:28:29;;;;;;;16.80;12.53;;;;;;;8.82;100.00;102722.50;5023944;28;20037;-85
2022/11/11 00:31:02;;;;;;;17.53;12.27;;;;;;;8.83;100.00;102721.50;5039961;28;20055;-83
2022/11/11 00:33:28;;;;;;;19.47;12.57;;;;;;;8.84;100.00;102722.34;5037928;28;20086;-85
2022/11/11 00:35:53;;;;;;;21.80;13.90;;;;;;;8.78;100.00;102735.50;5022167;28;20033;-87
2022/11/11 00:41:03;;;;;;;20.13;13.43;;;;;;;8.92;100.00;102731.41;5039948;28;20044;-84
2022/11/11 00:43:29;;;;;;;18.77;13.53;;;;;;;8.89;100.00;102737.09;5041101;28;20236;-87
2022/11/11 00:50:57;;;;;;;18.40;13.47;;;;;;;8.85;100.00;102735.69;5039813;28;20037;-84
2022/11/11 00:51:24;;;;;;;19.07;14.40;;;;;;;8.90;100.00;102738.78;5033578;28;20048;-84
2022/11/11 00:53:49;;;;;;;20.47;14.10;;;;;;;8.87;100.00;102744.53;5041091;28;20439;-87
2022/11/11 00:56:14;;;;;;;20.77;14.80;;;;;;;8.91;100.00;102745.06;5039754;28;20037;-87
2022/11/11 00:58:40;;;;;;;20.27;14.53;;;;;;;8.92;100.00;102742.22;5041213;28;20147;-83
2022/11/11 01:01:05;;;;;;;19.03;14.20;;;;;;;8.99;100.00;102746.97;5039277;28;20457;-84
2022/11/11 01:03:30;;;;;;;21.67;15.30;;;;;;;8.87;100.00;102749.94;5040902;28;20426;-84
2022/11/11 01:05:59;;;;;;;21.73;15.10;;;;;;;8.91;100.00;102756.72;5021988;28;20134;-87
2022/11/11 01:08:25;;;;;;;18.40;14.20;;;;;;;8.95;100.00;102763.53;5039490;28;20033;-86
2022/11/11 01:10:50;;;;;;;21.60;16.00;;;;;;;8.93;100.00;102757.44;5054548;28;20846;-83
2022/11/11 01:13:22;;;;;;;20.33;15.40;;;;;;;8.90;100.00;102746.91;5040145;28;20029;-85
2022/11/11 01:15:52;;;;;;;19.50;16.17;;;;;;;8.94;100.00;102752.88;5040047;28;20036;-86
2022/11/11 01:18:21;;;;;;;22.80;16.80;;;;;;;9.00;100.00;102756.81;5022697;28;20033;-86
2022/11/11 01:20:46;;;;;;;23.03;15.93;;;;;;;9.00;100.00;102763.06;5020080;28;20041;-85
2022/11/11 01:23:13;;;;;;;21.73;16.43;;;;;;;8.91;100.00;102748.63;5040156;28;20043;-87
2022/11/11 01:25:40;;;;;;;20.87;15.27;;;;;;;9.02;100.00;102754.81;5039473;28;20041;-84
2022/11/11 01:28:07;;;;;;;22.47;16.53;;;;;;;8.96;100.00;102753.53;5055407;28;20048;-83
2022/11/11 01:30:34;;;;;;;24.70;17.47;;;;;;;8.99;100.00;102752.38;5039425;28;20086;-86
2022/11/11 01:33:00;;;;;;;22.97;16.90;;;;;;;9.02;100.00;102752.09;5039613;28;20072;-83
2022/11/11 01:35:26;;;;;;;20.17;16.17;;;;;;;8.99;100.00;102730.75;5021623;28;20123;-86
2022/11/11 01:37:52;;;;;;;20.63;16.70;;;;;;;9.12;100.00;102736.63;5040641;28;20350;-86
2022/11/11 01:40:17;;;;;;;22.90;17.03;;;;;;;9.05;100.00;102728.28;5039795;28;20033;-86
2022/11/11 01:42:51;;;;;;;22.50;17.30;;;;;;;9.06;100.00;102732.69;5020085;28;20041;-85
2022/11/11 01:45:53;;;;;;;24.58;17.60;;;;;;;9.12;100.00;102718.56;5039321;28;20053;-84
2022/11/11 01:51:39;;;;;;;22.63;17.20;;;;;;;9.11;100.00;102726.81;5038536;28;20554;-85
2022/11/11 01:54:13;;;;;;;24.60;18.47;;;;;;;8.99;100.00;102719.94;5039131;28;20040;-85
2022/11/11 01:56:41;;;;;;;25.15;17.67;;;;;;;8.98;100.00;102718.28;5038873;28;20453;-86
2022/11/11 01:59:11;;;;;;;23.97;17.80;;;;;;;9.01;100.00;102720.66;5038326;28;20033;-83
2022/11/11 02:01:37;;;;;;;22.83;17.97;;;;;;;8.94;100.00;102715.84;5021108;28;20036;-83
2022/11/11 02:06:52;;;;;;;25.90;18.90;;;;;;;9.00;100.00;102722.50;5039493;28;20051;-84
2022/11/11 02:09:19;;;;;;;23.60;18.40;;;;;;;8.95;100.00;102704.03;5039253;28;20665;-86
2022/11/11 02:14:34;;;;;;;25.88;19.17;;;;;;;9.03;100.00;102697.00;5039874;28;20462;-83
2022/11/11 02:17:26;;;;;;;24.93;18.13;;;;;;;9.17;100.00;102709.13;5039388;28;20028;-82
2022/11/11 02:19:58;;;;;;;24.57;18.50;;;;;;;8.94;100.00;102696.94;5038897;28;20501;-85
2022/11/11 02:22:26;;;;;;;23.87;17.50;;;;;;;9.06;100.00;102694.00;5039383;28;20508;-86
2022/11/11 02:24:52;;;;;;;24.90;17.50;;;;;;;9.07;100.00;102703.78;5038558;28;20040;-85
2022/11/11 02:27:19;;;;;;;22.97;16.60;;;;;;;9.06;100.00;102700.25;5039768;28;20041;-84
2022/11/11 02:29:48;;;;;;;21.63;15.67;;;;;;;9.06;100.00;102715.63;5040003;28;20036;-85
2022/11/11 02:32:13;;;;;;;21.20;15.97;;;;;;;9.13;100.00;102722.94;5037593;28;20673;-83
2022/11/11 02:34:39;;;;;;;22.97;16.43;;;;;;;9.05;100.00;102711.22;5038307;28;20610;-84
2022/11/11 02:37:07;;;;;;;21.40;16.63;;;;;;;9.04;100.00;102720.34;5038754;28;20053;-88
2022/11/11 02:39:36;;;;;;;22.23;16.67;;;;;;;8.99;100.00;102715.41;5039211;28;20116;-85
2022/11/11 02:42:08;;;;;;;20.63;16.87;;;;;;;9.03;100.00;102715.94;5039390;28;20037;-84
2022/11/11 02:44:36;;;;;;;21.80;16.50;;;;;;;9.03;100.00;102705.97;5038632;28;20473;-85
2022/11/11 02:47:02;;;;;;;20.23;15.57;;;;;;;9.09;100.00;102696.38;5013501;28;20492;-85
2022/11/11 02:49:28;;;;;;;23.50;16.40;;;;;;;9.00;100.00;102700.84;5037766;28;20049;-88
2022/11/11 02:51:53;;;;;;;19.63;14.97;;;;;;;9.04;100.00;102694.13;5038829;28;20045;-83
2022/11/11 02:54:18;;;;;;;23.30;15.53;;;;;;;9.07;100.00;102687.56;5040762;28;20028;-84
2022/11/11 02:59:28;;;;;;;22.20;16.05;;;;;;;9.02;100.00;102700.72;5042548;28;20079;-84
2022/11/11 03:01:53;;;;;;;24.17;17.23;;;;;;;8.89;100.00;102712.75;5042563;28;20134;-85
2022/11/11 03:04:18;;;;;;;21.93;15.97;;;;;;;8.90;100.00;102700.94;5042556;28;20429;-85
2022/11/11 03:06:44;;;;;;;23.07;15.70;;;;;;;8.92;100.00;102698.97;5041760;28;20033;-84
2022/11/11 03:09:09;;;;;;;22.80;17.03;;;;;;;8.89;100.00;102707.34;5024235;28;20123;-84
2022/11/11 03:11:37;;;;;;;23.50;16.07;;;;;;;8.92;100.00;102704.38;5041132;28;20064;-84
2022/11/11 03:14:03;;;;;;;21.90;15.30;;;;;;;8.90;100.00;102706.34;5042798;28;20090;-83
2022/11/11 03:19:13;;;;;;;21.10;15.20;;;;;;;8.86;100.00;102710.38;5042502;28;20043;-83
2022/11/11 03:21:39;;;;;;;21.47;15.13;;;;;;;8.83;100.00;102709.84;5041757;28;20021;-83
2022/11/11 03:24:05;;;;;;;19.50;14.73;;;;;;;8.91;100.00;102709.94;5041447;28;20253;-83
2022/11/11 03:26:30;;;;;;;20.03;15.30;;;;;;;8.82;100.00;102718.97;5042694;28;20601;-85
2022/11/11 03:28:55;;;;;;;21.83;15.50;;;;;;;8.81;100.00;102701.88;5042390;28;20032;-86
2022/11/11 03:31:21;;;;;;;20.83;15.37;;;;;;;8.79;100.00;102699.31;5041204;28;20511;-87
2022/11/11 03:33:46;;;;;;;24.73;17.30;;;;;;;8.78;100.00;102707.59;5041991;28;20046;-88
2022/11/11 03:36:12;;;;;;;22.03;16.40;;;;;;;8.73;100.00;102699.09;5041216;28;20029;-86
2022/11/11 03:38:37;;;;;;;22.13;16.67;;;;;;;8.73;100.00;102708.06;5024291;28;20050;-85
2022/11/11 03:41:04;;;;;;;21.43;15.53;;;;;;;8.72;100.00;102711.78;5023008;28;20179;-85
2022/11/11 03:43:31;;;;;;;21.40;16.03;;;;;;;8.73;100.00;102709.91;5042282;28;20037;-83
2022/11/11 03:45:59;;;;;;;22.93;16.73;;;;;;;8.67;100.00;102705.13;5041438;28;20036;-84
2022/11/11 03:48:27;;;;;;;20.97;16.33;;;;;;;8.59;100.00;102687.84;5041444;28;20380;-85
2022/11/11 03:50:52;;;;;;;21.33;15.83;;;;;;;8.78;100.00;102699.50;5040594;28;20052;-82
2022/11/11 03:53:19;;;;;;;22.13;15.77;;;;;;;8.70;100.00;102705.66;5042307;28;20053;-88
2022/11/11 03:55:45;;;;;;;21.80;15.90;;;;;;;8.73;100.00;102705.38;5041213;28;20036;-86
2022/11/11 03:58:10;;;;;;;21.97;14.63;;;;;;;8.66;100.00;102698.03;5040836;28;20487;-88
2022/11/11 04:00:36;;;;;;;21.70;15.20;;;;;;;8.70;100.00;102700.25;5041784;28;20126;-86
2022/11/11 04:11:38;;;;;;;24.17;15.93;;;;;;;8.55;100.00;102712.59;5040554;28;19959;-87
2022/11/11 04:16:52;;;;;;;21.00;14.90;;;;;;;8.57;100.00;102721.41;5040369;28;20055;-85
2022/11/11 04:22:02;;;;;;;22.13;14.40;;;;;;;8.53;100.00;102726.25;5039782;28;20512;-87
2022/11/11 04:27:14;;;;;;;22.60;15.30;;;;;;;8.55;100.00;102735.06;5040029;28;20155;-84
2022/11/11 04:29:40;;;;;;;22.17;14.87;;;;;;;8.60;100.00;102737.31;5041701;28;20044;-85
2022/11/11 04:34:54;;;;;;;21.67;15.70;;;;;;;8.50;100.00;102720.31;5040493;28;20051;-85
2022/11/11 04:37:21;;;;;;;23.60;15.67;;;;;;;8.54;100.00;102730.69;5040529;28;20075;-82
2022/11/11 04:42:31;;;;;;;22.48;14.85;;;;;;;8.53;100.00;102737.06;5040541;28;20315;-83
2022/11/11 04:47:55;;;;;;;;;;;;;;;8.68;100.00;102728.47;5040335;28;20075;-86
2022/11/11 04:50:22;;;;;;;23.17;15.73;;;;;;;8.56;100.00;102730.53;5040545;28;19943;-87
2022/11/11 04:52:47;;;;;;;21.17;14.63;;;;;;;8.56;100.00;102723.25;5020129;28;20420;-84
2022/11/11 04:57:57;;;;;;;21.35;15.38;;;;;;;8.54;100.00;102722.56;5039890;28;20043;-84
2022/11/11 05:00:22;;;;;;;20.87;15.00;;;;;;;8.54;100.00;102722.56;5040990;28;20033;-81
2022/11/11 05:11:04;;;;;;;21.52;15.90;;;;;;;8.33;100.00;102720.09;5053480;28;20063;-86
2022/11/11 05:22:18;;;;;;;22.67;16.93;;;;;;;8.20;100.00;102725.00;4981184;28;20036;-86
2022/11/11 05:27:28;;;;;;;19.90;14.67;;;;;;;8.26;100.00;102730.66;5039995;28;20064;-86
2022/11/11 05:29:54;;;;;;;22.37;16.10;;;;;;;8.13;100.00;102738.25;5022291;28;20302;-84
2022/11/11 05:32:20;;;;;;;23.27;17.70;;;;;;;8.15;100.00;102721.91;5039136;28;20036;-86
2022/11/11 05:34:46;;;;;;;22.40;15.97;;;;;;;8.11;100.00;102724.06;5020183;28;20155;-84
2022/11/11 05:37:12;;;;;;;22.90;16.40;;;;;;;8.05;100.00;102732.72;5038419;28;20500;-82
2022/11/11 05:39:38;;;;;;;23.80;16.50;;;;;;;8.08;100.00;102722.50;5027781;28;20056;-86
2022/11/11 05:42:04;;;;;;;22.93;17.27;;;;;;;7.99;100.00;102722.53;5038719;28;21435;-86
2022/11/11 05:44:29;;;;;;;24.47;16.93;;;;;;;7.97;100.00;102729.94;5039056;28;20056;-83
2022/11/11 05:46:54;;;;;;;23.87;16.67;;;;;;;7.98;100.00;102726.22;5037436;28;20454;-84
2022/11/11 05:49:20;;;;;;;22.47;16.00;;;;;;;8.01;100.00;102720.53;5039536;28;20061;-86
2022/11/11 05:51:46;;;;;;;21.00;15.53;;;;;;;8.09;100.00;102728.72;5020208;28;20045;-84
2022/11/11 05:54:13;;;;;;;19.23;14.73;;;;;;;8.05;100.00;102735.44;5039560;28;20040;-85
2022/11/11 05:56:39;;;;;;;19.40;15.20;;;;;;;8.02;100.00;102741.97;5038877;28;20033;-83
2022/11/11 05:59:05;;;;;;;20.57;15.80;;;;;;;7.93;100.00;102735.63;5038676;28;20032;-88
2022/11/11 06:01:31;;;;;;;22.60;16.17;;;;;;;7.96;100.00;102730.94;5039903;28;20095;-88
2022/11/11 06:03:56;;;;;;;21.73;15.03;;;;;;;7.83;100.00;102724.00;5053502;28;20528;-85
2022/11/11 06:06:21;;;;;;;20.17;15.23;;;;;;;7.87;100.00;102732.66;5038168;28;20466;-87
2022/11/11 06:08:47;;;;;;;21.63;16.23;;;;;;;7.81;100.00;102739.50;5038054;28;20040;-85
2022/11/11 06:11:12;;;;;;;20.97;15.83;;;;;;;7.85;100.00;102748.19;5037934;28;20124;-83
2022/11/11 06:13:37;;;;;;;20.47;15.77;;;;;;;7.73;100.00;102750.19;5038281;28;20171;-86
2022/11/11 06:16:03;;;;;;;20.47;16.10;;;;;;;7.72;100.00;102737.69;5039916;28;20119;-83
2022/11/11 06:18:29;;;;;;;20.17;15.50;;;;;;;7.72;100.00;102740.38;5039176;28;20128;-83
2022/11/11 06:20:56;;;;;;;21.33;16.33;;;;;;;7.74;100.00;102746.50;5038308;28;20052;-83
2022/11/11 06:23:23;;;;;;;21.57;16.70;;;;;;;7.62;100.00;102753.06;5038428;28;20050;-83
2022/11/11 06:28:33;;;;;;;22.13;16.98;;;;;;;7.57;100.00;102745.38;5039001;28;20051;-84
2022/11/11 06:30:58;;;;;;;24.33;17.57;;;;;;;7.49;100.00;102742.56;5043761;28;20377;-85
2022/11/11 06:33:24;;;;;;;21.77;17.57;;;;;;;7.45;100.00;102752.78;5043078;28;20063;-84
2022/11/11 06:35:50;;;;;;;23.90;17.23;;;;;;;7.53;100.00;102757.47;5042289;28;20106;-83
2022/11/11 06:38:16;;;;;;;21.43;17.30;;;;;;;7.38;100.00;102754.38;5042869;28;20033;-86
2022/11/11 06:40:42;;;;;;;22.73;18.30;;;;;;;7.43;100.00;102773.66;5042719;28;20309;-86
2022/11/11 06:43:08;;;;;;;22.67;18.40;;;;;;;7.40;100.00;102776.66;5042635;28;21748;-85
2022/11/11 06:45:34;;;;;;;24.00;18.70;;;;;;;7.39;100.00;102773.09;5043396;28;20040;-87
2022/11/11 06:47:59;;;;;;;24.33;17.80;;;;;;;7.33;100.00;102770.13;5041634;28;20447;-85
2022/11/11 06:50:25;;;;;;;22.63;17.67;;;;;;;7.28;100.00;102761.63;5042972;28;20041;-84
2022/11/11 06:52:51;;;;;;;22.40;17.30;;;;;;;7.33;100.00;102775.50;5041412;28;20634;-85
2022/11/11 06:55:16;;;;;;;22.10;17.30;;;;;;;7.29;100.00;102768.69;5042713;28;20529;-83
2022/11/11 06:57:42;;;;;;;25.57;18.27;;;;;;;7.32;100.00;102777.38;5043096;28;20032;-88
2022/11/11 07:00:08;;;;;;;22.43;17.57;;;;;;;7.30;100.00;102773.94;5042394;28;20045;-84
2022/11/11 07:02:33;;;;;;;24.33;19.20;;;;;;;7.20;100.00;102763.16;5043265;28;20044;-88
2022/11/11 07:04:59;;;;;;;22.77;17.13;;;;;;;7.22;100.00;102769.28;5058188;28;20037;-82
2022/11/11 07:07:25;;;;;;;23.97;17.67;;;;;;;7.17;100.00;102766.16;5042067;28;20037;-82
2022/11/11 07:09:50;;;;;;;25.77;17.63;;;;;;;7.15;100.00;102768.13;5041710;28;20086;-85
2022/11/11 07:12:16;;;;;;;20.83;16.53;;;;;;;7.14;100.00;102769.16;5040830;28;20478;-85
2022/11/11 07:14:41;;;;;;;21.20;17.33;;;;;;;7.11;100.00;102777.50;5042571;28;20039;-86
2022/11/11 07:17:07;;;;;;;22.63;16.90;;;;;;;7.08;100.00;102772.41;5055696;28;20072;-86
2022/11/11 07:19:32;;;;;;;24.63;17.20;;;;;;;7.02;100.00;102772.97;5056034;28;20040;-84
2022/11/11 07:21:57;;;;;;;23.93;16.50;;;;;;;7.04;100.00;102781.75;5056096;28;20036;-84
2022/11/11 07:24:30;;;;;;;23.67;17.63;;;;;;;7.07;100.00;102792.25;5041727;28;20131;-86
2022/11/11 07:26:55;;;;;;;23.93;18.43;;;;;;;7.10;100.00;102792.00;5005242;28;20136;-88
2022/11/11 07:29:21;;;;;;;21.90;17.03;;;;;;;7.09;100.00;102801.91;5043167;28;20472;-83
2022/11/11 07:31:46;;;;;;;20.97;16.53;;;;;;;7.04;100.00;102808.72;5057921;28;20113;-87
2022/11/11 07:34:11;;;;;;;21.80;16.53;;;;;;;7.13;100.00;102810.56;5041260;28;20040;-86
2022/11/11 07:36:37;;;;;;;23.43;17.03;;;;;;;7.06;100.00;102806.75;5024947;28;20622;-86
2022/11/11 07:39:02;;;;;;;22.60;16.77;;;;;;;7.08;100.00;102820.91;5041104;28;20068;-82
2022/11/11 07:41:27;;;;;;;21.50;17.33;;;;;;;7.17;100.00;102808.47;5040808;28;20035;-88
2022/11/11 07:43:53;;;;;;;24.10;17.30;;;;;;;7.23;100.00;102811.41;5040312;28;20059;-82
2022/11/11 07:46:18;;;;;;;27.77;18.00;;;;;;;7.28;100.00;102815.56;5042514;28;20044;-86
2022/11/11 07:48:43;;;;;;;23.97;17.90;;;;;;;7.18;100.00;102808.31;5043984;28;20054;-89
2022/11/11 07:51:09;;;;;;;22.53;17.40;;;;;;;7.21;100.00;102812.56;5002702;28;20053;-84
2022/11/11 07:53:34;;;;;;;23.93;17.17;;;;;;;7.35;100.00;102830.16;5000981;28;20100;-87
2022/11/11 07:56:00;;;;;;;23.93;16.97;;;;;;;7.25;100.00;102816.69;5016911;28;20045;-86
2022/11/11 07:58:25;;;;;;;20.40;16.47;;;;;;;7.30;100.00;102832.44;5001503;28;20559;-85
2022/11/11 08:00:50;;;;;;;22.57;16.87;;;;;;;7.34;100.00;102833.84;5002179;28;20465;-83
2022/11/11 08:03:16;;;;;;;22.73;17.20;;;;;;;7.32;100.00;102833.16;5001411;28;20410;-88
2022/11/11 08:05:41;;;;;;;22.60;17.37;;;;;;;7.43;100.00;102841.09;5016705;28;20589;-86
2022/11/11 08:08:08;;;;;;;25.27;17.90;;;;;;;7.48;100.00;102851.44;5001484;28;20418;-87
2022/11/11 08:10:34;;;;;;;24.80;17.47;;;;;;;7.57;100.00;102859.53;5001340;28;20632;-87
2022/11/11 08:15:45;;;;;;;24.15;17.75;;;;;;;7.63;100.00;102857.25;5002368;28;20781;-86
2022/11/11 08:18:10;;;;;;;24.60;17.77;;;;;;;7.71;100.00;102860.09;4983487;28;20046;-86
2022/11/11 08:20:36;;;;;;;22.03;16.53;;;;;;;7.76;100.00;102858.69;5000670;28;20069;-87
2022/11/11 08:23:03;;;;;;;20.53;15.63;;;;;;;7.86;100.00;102847.88;5002258;28;20038;-87
2022/11/11 08:25:29;;;;;;;20.87;16.23;;;;;;;7.75;100.00;102862.38;5001964;28;20434;-87
2022/11/11 08:27:59;;;;;;;20.57;15.63;;;;;;;7.80;100.00;102858.41;5000373;28;20041;-85
2022/11/11 08:30:25;;;;;;;20.50;15.97;;;;;;;7.88;100.00;102867.47;5001011;28;20044;-84
2022/11/11 08:33:04;;;;;;;23.07;17.00;;;;;;;7.93;100.00;102872.44;5016125;28;20241;-85
2022/11/11 08:35:31;;;;;;;22.80;16.63;;;;;;;8.02;100.00;102882.34;5001513;28;20049;-85
2022/11/11 08:38:01;;;;;;;21.27;17.00;;;;;;;8.12;100.00;102879.66;5000868;28;20482;-87
2022/11/11 08:40:26;;;;;;;21.90;16.23;;;;;;;8.17;100.00;102880.06;5000382;28;20030;-85
2022/11/11 08:42:56;;;;;;;19.63;15.03;;;;;;;8.13;100.00;102892.13;4999774;28;20037;-88
2022/11/11 08:45:22;;;;;;;18.97;14.80;;;;;;;8.20;100.00;102895.13;4982590;28;20116;-84
2022/11/11 08:47:47;;;;;;;20.23;14.90;;;;;;;8.28;100.00;102893.41;4992896;28;20060;-86
2022/11/11 08:50:13;;;;;;;20.70;15.20;;;;;;;8.43;100.00;102888.38;5002474;28;20052;-85
2022/11/11 08:52:44;;;;;;;18.97;15.00;;;;;;;8.42;100.00;102894.78;5018756;28;20035;-86
2022/11/11 08:55:10;;;;;;;19.97;15.47;;;;;;;8.49;100.00;102886.97;5020106;28;20470;-88
2022/11/11 08:57:35;;;;;;;19.33;14.40;;;;;;;8.66;99.83;102889.88;5019616;28;20029;-87
2022/11/11 09:00:01;;;;;;;22.07;15.70;;;;;;;8.68;100.00;102891.44;5021059;28;20029;-85
2022/11/11 09:02:26;;;;;;;20.00;14.97;;;;;;;8.62;99.56;102892.03;5020428;28;20041;-83
2022/11/11 09:04:52;;;;;;;21.77;14.17;;;;;;;8.79;98.84;102893.09;5018411;28;20084;-84
2022/11/11 09:07:17;;;;;;;18.83;14.50;;;;;;;8.58;99.51;102890.63;5035959;28;20040;-85
2022/11/11 09:09:42;;;;;;;17.97;13.87;;;;;;;8.66;99.12;102879.06;5020302;28;20052;-87
2022/11/11 09:12:08;;;;;;;19.40;13.93;;;;;;;8.78;98.92;102892.25;5019537;28;20029;-87
2022/11/11 09:14:33;;;;;;;17.63;13.60;;;;;;;8.83;98.09;102894.50;5034597;28;20461;-87
2022/11/11 09:16:59;;;;;;;19.73;14.20;;;;;;;8.98;98.44;102896.72;5020763;28;20059;-86
2022/11/11 09:19:24;;;;;;;18.23;13.10;;;;;;;8.83;97.79;102901.78;5034345;28;20110;-85
2022/11/11 09:21:51;;;;;;;16.17;11.83;;;;;;;9.03;97.45;102895.25;5021089;28;20040;-85
2022/11/11 09:24:17;;;;;;;17.47;12.30;;;;;;;8.91;97.59;102896.47;5019352;28;20064;-85
2022/11/11 09:26:42;;;;;;;16.87;11.93;;;;;;;9.21;96.31;102898.00;5019268;28;20125;-87
2022/11/11 09:29:07;;;;;;;15.07;11.20;;;;;;;9.18;95.45;102881.19;5020856;28;20046;-85
2022/11/11 09:31:33;;;;;;;18.47;12.07;;;;;;;9.08;95.92;102897.50;5034606;28;20044;-87
2022/11/11 09:33:58;;;;;;;16.57;11.63;;;;;;;9.08;96.26;102894.78;5019221;28;20068;-87
2022/11/11 09:36:23;;;;;;;15.53;10.77;;;;;;;9.13;95.94;102895.19;5019227;28;20115;-84
2022/11/11 09:38:49;;;;;;;16.80;11.20;;;;;;;9.16;96.01;102892.19;5000506;28;20080;-86
2022/11/11 09:41:18;;;;;;;15.80;11.40;;;;;;;9.16;95.88;102894.88;5019188;28;20043;-89
2022/11/11 09:43:53;;;;;;;15.20;10.07;;;;;;;9.26;96.07;102897.50;5019044;28;20037;-82
2022/11/11 09:46:24;;;;;;;15.50;10.98;;;;;;;9.25;95.74;102893.97;5035518;28;20049;-85
2022/11/11 09:49:07;;;;;;;14.07;10.50;;;;;;;9.15;95.33;102895.88;5018156;28;20132;-84
2022/11/11 09:51:55;;;;;;;13.87;10.07;;;;;;;9.39;95.41;102902.56;5019384;28;20045;-85
2022/11/11 09:54:53;;;;;;;14.83;10.43;;;;;;;9.26;95.50;102901.09;5018454;28;20022;-88
2022/11/11 09:57:48;;;;;;;16.20;10.63;;;;;;;9.39;95.05;102907.97;5019437;28;20057;-86
2022/11/11 10:00:21;;;;;;;12.63;9.23;;;;;;;9.53;93.93;102909.28;5012867;28;20084;-86
2022/11/11 10:02:52;;;;;;;15.30;9.47;;;;;;;9.59;94.63;102908.69;5019740;28;20030;-85
2022/11/11 10:05:40;;;;;;;14.33;9.13;;;;;;;9.82;93.22;102900.06;5018817;28;20136;-86
2022/11/11 10:08:15;;;;;;;12.27;8.60;;;;;;;9.84;92.39;102915.16;5018650;28;20049;-83
2022/11/11 10:10:46;;;;;;;12.50;8.93;;;;;;;9.87;92.83;102906.72;5019355;28;20303;-86
2022/11/11 10:13:32;;;;;;;12.77;8.87;;;;;;;10.11;92.53;102907.94;5019847;28;20044;-86
2022/11/11 10:16:18;;;;;;;13.03;8.37;;;;;;;10.02;90.86;102912.44;5011213;28;20079;-84
2022/11/11 10:18:49;;;;;;;11.00;7.80;;;;;;;10.02;91.51;102914.28;5018911;28;20524;-88
2022/11/11 10:21:25;;;;;;;10.77;7.60;;;;;;;9.91;91.84;102921.69;5019191;28;20100;-88
2022/11/11 10:23:54;;;;;;;11.60;7.83;;;;;;;9.90;91.40;102919.97;5018144;28;20040;-83
2022/11/11 10:26:31;;;;;;;14.17;7.70;;;;;;;10.10;91.54;102914.34;5019355;28;20047;-87
2022/11/11 10:29:45;;;;;;;12.00;8.70;;;;;;;10.17;90.86;102925.41;5018174;28;20079;-85
2022/11/11 10:32:16;;;;;;;11.73;7.80;;;;;;;10.21;90.66;102916.78;5034064;28;20496;-85
2022/11/11 10:34:41;;;;;;;10.77;6.77;;;;;;;10.34;88.87;102910.13;5018684;28;20500;-85
2022/11/11 10:37:16;;;;;;;11.63;7.27;;;;;;;10.30;89.67;102926.69;5019714;28;20033;-84
2022/11/11 10:39:50;;;;;;;9.05;6.55;;;;;;;10.21;88.45;102911.38;5018161;28;20037;-85
2022/11/11 10:42:17;;;;;;;11.15;6.97;;;;;;;10.28;88.60;102907.03;5018262;28;20706;-86
2022/11/11 10:44:43;;;;;;;9.93;7.10;;;;;;;10.13;89.79;102916.75;5018455;28;20115;-87
2022/11/11 10:47:31;;;;;;;12.23;7.93;;;;;;;10.28;90.12;102915.16;5034452;28;20042;-88
2022/11/11 10:50:05;;;;;;;9.73;7.10;;;;;;;10.37;88.82;102916.09;5018101;28;20057;-83
2022/11/11 10:52:58;;;;;;;9.85;6.68;;;;;;;10.46;89.01;102907.00;5019284;28;20421;-84
2022/11/11 10:55:34;;;;;;;11.00;7.57;;;;;;;10.40;88.02;102915.78;5018601;28;20041;-86
2022/11/11 10:58:26;;;;;;;13.20;7.23;;;;;;;10.58;89.00;102920.28;5018406;28;20045;-86
2022/11/11 11:01:31;;;;;;;11.07;8.13;;;;;;;10.72;88.36;102916.97;5018136;28;20033;-87
2022/11/11 11:04:05;;;;;;;11.03;6.97;;;;;;;10.83;87.87;102912.28;5018432;28;20554;-86
2022/11/11 11:06:37;;;;;;;;;;;;;;;11.20;85.50;102917.31;5018698;28;20625;-85
2022/11/11 11:09:25;;;;;;;11.80;6.70;;;;;;;10.99;86.15;102915.06;5017772;28;20436;-84
2022/11/11 11:12:16;;;;;;;10.23;6.50;;;;;;;11.09;85.40;102913.06;5017902;28;20041;-85
2022/11/11 11:14:45;;;;;;;11.80;6.97;;;;;;;11.11;85.96;102912.88;5019153;28;20037;-84
2022/11/11 11:17:22;;;;;;;7.03;5.57;;;;;;;11.14;85.43;102910.69;5022295;28;20045;-83
2022/11/11 11:20:19;;;;;;;7.17;5.07;;;;;;;11.15;85.98;102897.97;5021589;28;20052;-86
2022/11/11 11:22:46;;;;;;;8.27;4.97;;;;;;;11.05;85.39;102897.28;5007183;28;20048;-84
2022/11/11 11:25:12;;;;;;;7.70;4.70;;;;;;;11.11;84.12;102905.59;5021180;28;20052;-85
2022/11/11 11:27:37;;;;;;;7.10;4.60;;;;;;;11.07;84.95;102903.38;5022087;28;20117;-85
2022/11/11 11:30:19;;;;;;;5.87;4.70;;;;;;;11.10;84.22;102900.34;5020882;28;20110;-86
2022/11/11 11:33:02;;;;;;;7.50;4.60;;;;;;;11.04;84.58;102899.13;4996726;28;20147;-86
2022/11/11 11:35:32;;;;;;;6.90;4.27;;;;;;;11.12;83.61;102896.47;5020462;28;20090;-82
2022/11/11 11:37:57;;;;;;;5.70;3.90;;;;;;;11.18;83.54;102892.22;5020881;28;20120;-86
2022/11/11 11:40:23;;;;;;;6.50;4.10;;;;;;;11.28;83.22;102892.91;5020225;28;20041;-85
2022/11/11 11:42:48;;;;;;;5.40;3.80;;;;;;;11.24;83.14;102888.84;5013178;28;20503;-84
2022/11/11 11:45:24;;;;;;;6.83;3.90;;;;;;;11.25;83.26;102889.72;5024347;28;20124;-85
2022/11/11 11:48:20;;;;;;;6.77;4.03;;;;;;;11.38;82.98;102897.34;5010820;28;20497;-84
2022/11/11 11:50:50;;;;;;;7.23;4.07;;;;;;;11.36;83.01;102893.97;5009979;28;20071;-84
2022/11/11 11:53:29;;;;;;;6.70;4.47;;;;;;;11.45;83.46;102893.81;5011266;28;20057;-88
2022/11/11 11:56:08;;;;;;;4.53;3.60;;;;;;;11.51;81.88;102897.72;5011611;28;20069;-82
2022/11/11 11:59:13;;;;;;;6.73;4.20;;;;;;;11.54;82.56;102886.50;5010416;28;20603;-83
2022/11/11 12:01:54;;;;;;;5.90;3.90;;;;;;;11.53;82.71;102895.66;4989038;28;20460;-86
2022/11/11 12:04:25;;;;;;;5.83;3.57;;;;;;;11.52;81.45;102884.97;5010522;28;20042;-81
2022/11/11 12:07:05;;;;;;;6.23;3.43;;;;;;;11.57;81.46;102886.19;5010050;28;20041;-82
2022/11/11 12:09:54;;;;;;;5.57;3.20;;;;;;;11.54;81.28;102885.69;5013826;28;20084;-85
2022/11/11 12:12:39;;;;;;;5.70;3.13;;;;;;;11.66;82.40;102896.03;5020350;28;20037;-86
2022/11/11 12:15:22;;;;;;;9.48;4.00;;;;;;;11.70;81.05;102904.69;5021371;28;20120;-83
2022/11/11 12:17:47;;;;;;;4.87;3.20;;;;;;;11.71;80.76;102886.53;5018690;28;20600;-84
2022/11/11 12:20:31;;;;;;;6.40;2.97;;;;;;;11.75;79.98;102879.72;5012787;28;20033;-89
2022/11/11 12:23:14;;;;;;;6.50;3.37;;;;;;;11.80;79.65;102890.94;5020727;28;20171;-88
2022/11/11 12:25:50;;;;;;;3.47;2.77;;;;;;;11.91;80.56;102881.59;5020567;28;20071;-85
2022/11/11 12:28:33;;;;;;;5.50;3.17;;;;;;;11.88;79.54;102863.78;5021089;28;20041;-87
2022/11/11 12:31:14;;;;;;;4.60;3.03;;;;;;;11.95;79.89;102864.84;5014393;28;20045;-87
2022/11/11 12:33:58;;;;;;;4.70;3.10;;;;;;;11.96;79.51;102861.06;5011689;28;20047;-88
2022/11/11 12:36:28;;;;;;;7.50;3.38;;;;;;;12.04;79.76;102857.50;5009057;28;20029;-87
2022/11/11 12:38:54;;;;;;;5.07;2.97;;;;;;;12.07;78.68;102853.59;5010865;28;20033;-83
2022/11/11 12:41:44;;;;;;;5.00;2.80;;;;;;;12.14;78.48;102857.31;4998974;28;20116;-84
2022/11/11 12:44:12;;;;;;;6.40;2.73;;;;;;;12.23;78.01;102852.72;5014186;28;20045;-87
2022/11/11 12:46:55;;;;;;;5.93;2.77;;;;;;;12.26;78.16;102857.81;5020435;28;20448;-87